createdAt,value
2019-04-22T00:01:58.112Z,14.10
2019-04-22T00:04:40.205Z,14.00
2019-04-22T00:07:41.984Z,14.00
2019-04-22T00:10:19.838Z,14.00
2019-04-22T00:12:51.581Z,13.90
2019-04-22T00:15:32.538Z,13.90
2019-04-22T00:18:16.547Z,13.90
2019-04-22T00:20:58.422Z,13.90
2019-04-22T00:23:54.922Z,13.80
2019-04-22T00:26:23.686Z,13.80
2019-04-22T00:29:05.193Z,13.80
2019-04-22T00:31:49.523Z,13.70
2019-04-22T00:34:16.756Z,13.60
2019-04-22T00:36:52.642Z,13.60
2019-04-22T00:39:16.394Z,13.60
2019-04-22T00:41:50.773Z,13.50
2019-04-22T00:44:26.045Z,13.50
2019-04-22T00:46:54.147Z,13.50
2019-04-22T00:52:28.193Z,13.50
2019-04-22T00:54:50.682Z,13.40
2019-04-22T00:57:15.614Z,13.40
2019-04-22T00:59:50.803Z,13.40
2019-04-22T01:02:24.555Z,13.30
2019-04-22T01:04:56.063Z,13.30
2019-04-22T01:07:17.585Z,13.30
2019-04-22T01:09:51.769Z,13.20
2019-04-22T01:12:20.998Z,13.20
2019-04-22T01:14:52.046Z,13.10
2019-04-22T01:17:40.181Z,13.10
2019-04-22T01:20:29.440Z,13.00
2019-04-22T01:23:14.232Z,12.90
2019-04-22T01:25:41.123Z,12.90
2019-04-22T01:28:24.025Z,12.90
2019-04-22T01:30:53.372Z,12.90
2019-04-22T01:33:23.809Z,12.90
2019-04-22T01:36:08.029Z,12.70
2019-04-22T01:38:38.436Z,12.70
2019-04-22T01:41:42.399Z,12.50
2019-04-22T01:44:16.467Z,12.40
2019-04-22T01:46:39.599Z,12.30
2019-04-22T01:49:27.596Z,12.10
2019-04-22T01:52:02.942Z,12.10
2019-04-22T01:54:29.903Z,12.00
2019-04-22T01:57:10.931Z,12.00
2019-04-22T01:59:47.425Z,12.00
2019-04-22T02:02:30.527Z,12.00
2019-04-22T02:04:59.615Z,11.90
2019-04-22T02:07:30.507Z,11.90
2019-04-22T02:10:20.083Z,11.90
2019-04-22T02:12:33.720Z,11.90
2019-04-22T02:15:07.892Z,11.90
2019-04-22T02:17:37.255Z,11.80
2019-04-22T02:20:05.142Z,11.80
2019-04-22T02:22:50.178Z,11.70
2019-04-22T02:25:32.347Z,11.70
2019-04-22T02:28:05.035Z,11.70
2019-04-22T02:33:55.684Z,11.70
2019-04-22T02:43:47.435Z,11.70
2019-04-22T02:51:40.277Z,11.70
2019-04-22T02:57:35.271Z,11.70
2019-04-22T03:00:07.433Z,11.70
2019-04-22T03:07:31.769Z,11.60
2019-04-22T03:10:35.492Z,11.60
2019-04-22T03:13:02.148Z,11.60
2019-04-22T03:15:34.959Z,11.60
2019-04-22T03:20:37.401Z,11.50
2019-04-22T03:23:16.833Z,11.40
2019-04-22T03:28:16.515Z,11.40
2019-04-22T03:34:15.374Z,11.30
2019-04-22T03:36:05.040Z,11.40
2019-04-22T03:38:55.647Z,11.40
2019-04-22T03:41:19.424Z,11.40
2019-04-22T03:43:45.826Z,11.40
2019-04-22T03:46:01.599Z,11.30
2019-04-22T03:48:55.819Z,11.30
2019-04-22T03:51:16.134Z,11.30
2019-04-22T03:53:38.527Z,11.30
2019-04-22T03:59:12.004Z,11.20
2019-04-22T04:01:46.428Z,11.20
2019-04-22T04:04:09.139Z,11.20
2019-04-22T04:06:47.095Z,11.20
2019-04-22T04:09:27.053Z,11.20
2019-04-22T04:11:59.209Z,11.20
2019-04-22T04:14:26.331Z,11.20
2019-04-22T04:19:38.759Z,11.10
2019-04-22T04:22:00.714Z,11.10
2019-04-22T04:30:02.770Z,11.10
2019-04-22T04:43:08.273Z,11.10
2019-04-22T04:53:19.379Z,11.20
2019-04-22T04:55:33.283Z,11.10
2019-04-22T04:58:25.655Z,11.10
2019-04-22T05:03:23.372Z,11.20
2019-04-22T05:05:39.628Z,11.20
2019-04-22T05:13:54.327Z,11.20
2019-04-22T05:19:05.508Z,11.30
2019-04-22T05:21:50.722Z,11.30
2019-04-22T05:24:26.060Z,11.30
2019-04-22T05:26:48.859Z,11.40
2019-04-22T05:29:22.158Z,11.40
2019-04-22T05:32:31.261Z,11.40
2019-04-22T05:34:48.724Z,11.40
2019-04-22T05:37:15.607Z,11.50
2019-04-22T05:39:45.162Z,11.60
2019-04-22T05:42:28.463Z,11.60
2019-04-22T05:47:54.802Z,11.70
2019-04-22T05:50:20.417Z,11.80
2019-04-22T05:52:51.119Z,11.80
2019-04-22T05:58:18.433Z,11.90
2019-04-22T06:01:13.173Z,12.00
2019-04-22T06:03:15.415Z,12.00
2019-04-22T06:05:47.870Z,12.10
2019-04-22T06:08:22.021Z,12.20
2019-04-22T06:11:11.715Z,12.20
2019-04-22T06:13:50.678Z,12.30
2019-04-22T06:16:25.891Z,12.40
2019-04-22T06:19:02.824Z,12.40
2019-04-22T06:21:40.185Z,12.50
2019-04-22T06:24:16.731Z,12.60
2019-04-22T06:29:45.397Z,12.70
2019-04-22T06:35:18.408Z,12.90
2019-04-22T06:38:22.799Z,13.00
2019-04-22T06:40:34.674Z,13.10
2019-04-22T06:43:23.610Z,13.20
2019-04-22T06:45:57.721Z,13.20
2019-04-22T06:48:45.996Z,13.30
2019-04-22T06:51:19.815Z,13.40
2019-04-22T06:54:07.283Z,13.60
2019-04-22T06:56:48.509Z,13.70
2019-04-22T06:59:18.935Z,13.80
2019-04-22T07:01:56.250Z,13.90
2019-04-22T07:04:58.287Z,14.00
2019-04-22T07:07:23.993Z,14.10
2019-04-22T07:10:11.806Z,14.20
2019-04-22T07:15:12.718Z,14.50
2019-04-22T07:17:42.406Z,14.60
2019-04-22T07:23:07.919Z,14.70
2019-04-22T07:25:36.066Z,14.80
2019-04-22T07:28:12.245Z,14.90
2019-04-22T07:30:41.028Z,15.00
2019-04-22T07:38:22.910Z,15.30
2019-04-22T07:40:51.985Z,15.40
2019-04-22T07:43:20.174Z,15.50
2019-04-22T07:45:54.963Z,15.50
2019-04-22T07:48:35.745Z,15.60
2019-04-22T07:53:32.167Z,15.80
2019-04-22T07:56:01.927Z,15.90
2019-04-22T07:58:29.254Z,16.00
2019-04-22T08:01:02.029Z,16.20
2019-04-22T08:03:37.684Z,16.30
2019-04-22T08:06:17.531Z,16.40
2019-04-22T08:08:33.777Z,16.50
2019-04-22T08:11:08.127Z,16.70
2019-04-22T08:13:34.175Z,16.80
2019-04-22T08:16:02.787Z,16.90
2019-04-22T08:18:39.377Z,17.10
2019-04-22T08:21:07.535Z,17.20
2019-04-22T08:26:04.914Z,17.40
2019-04-22T08:28:46.870Z,17.50
2019-04-22T08:31:18.766Z,17.50
2019-04-22T08:33:44.466Z,17.60
2019-04-22T08:38:48.741Z,17.80
2019-04-22T08:41:28.454Z,17.80
2019-04-22T08:43:59.341Z,17.90
2019-04-22T08:46:29.786Z,18.00
2019-04-22T08:48:55.709Z,18.00
2019-04-22T08:51:25.318Z,18.10
2019-04-22T08:54:05.002Z,18.20
2019-04-22T08:56:35.094Z,18.30
2019-04-22T08:59:12.430Z,18.40
2019-04-22T09:04:04.044Z,18.70
2019-04-22T09:09:06.216Z,18.90
2019-04-22T09:11:44.927Z,19.00
2019-04-22T09:14:14.093Z,19.20
2019-04-22T09:16:42.677Z,19.30
2019-04-22T09:19:27.347Z,19.40
2019-04-22T09:21:38.836Z,19.40
2019-04-22T09:24:10.648Z,19.40
2019-04-22T09:26:41.792Z,19.50
2019-04-22T09:31:47.516Z,19.80
2019-04-22T09:34:14.057Z,19.80
2019-04-22T09:36:54.497Z,19.80
2019-04-22T09:39:17.423Z,19.80
2019-04-22T09:41:51.364Z,19.90
2019-04-22T09:44:16.310Z,20.00
2019-04-22T09:46:52.366Z,20.10
2019-04-22T09:51:52.227Z,20.50
2019-04-22T09:54:29.666Z,20.70
2019-04-22T09:56:56.463Z,20.80
2019-04-22T09:59:32.886Z,20.90
2019-04-22T10:02:16.033Z,21.00
2019-04-22T10:04:33.023Z,21.20
2019-04-22T10:07:01.034Z,21.40
2019-04-22T10:12:30.492Z,21.90
2019-04-22T10:14:55.926Z,22.10
2019-04-22T10:17:26.189Z,22.10
2019-04-22T10:20:01.048Z,22.00
2019-04-22T10:22:35.621Z,22.00
2019-04-22T10:24:57.044Z,22.10
2019-04-22T10:27:25.897Z,22.30
2019-04-22T10:30:33.329Z,22.50
2019-04-22T10:32:29.204Z,22.60
2019-04-22T10:35:09.237Z,22.70
2019-04-22T10:37:36.588Z,22.90
2019-04-22T10:40:09.876Z,23.30
2019-04-22T10:42:42.901Z,23.50
2019-04-22T10:45:14.460Z,23.50
2019-04-22T10:47:43.840Z,23.70
2019-04-22T10:50:14.434Z,24.00
2019-04-22T10:52:43.622Z,24.30
2019-04-22T10:55:13.824Z,24.60
2019-04-22T10:57:44.237Z,24.90
2019-04-22T11:00:15.687Z,25.10
2019-04-22T11:02:45.760Z,25.40
2019-04-22T11:05:16.489Z,25.70
2019-04-22T11:07:51.843Z,25.90
2019-04-22T11:10:34.590Z,26.20
2019-04-22T11:12:47.441Z,26.50
2019-04-22T11:15:18.239Z,26.80
2019-04-22T11:17:49.365Z,27.20
2019-04-22T11:20:19.853Z,27.50
2019-04-22T11:22:49.079Z,27.60
2019-04-22T11:25:18.378Z,27.90
2019-04-22T11:27:47.449Z,28.30
2019-04-22T11:30:36.697Z,28.40
2019-04-22T11:33:06.774Z,28.60
2019-04-22T11:35:37.444Z,28.90
2019-04-22T11:38:26.808Z,29.10
2019-04-22T11:41:16.721Z,29.20
2019-04-22T11:43:47.313Z,29.40
2019-04-22T11:46:17.624Z,29.60
2019-04-22T11:48:47.715Z,29.90
2019-04-22T11:51:18.267Z,29.90
2019-04-22T11:53:49.016Z,30.20
2019-04-22T11:56:18.849Z,30.40
2019-04-22T11:59:08.728Z,30.60
2019-04-22T12:01:39.015Z,30.80
2019-04-22T12:04:09.611Z,31.00
2019-04-22T12:06:40.111Z,30.80
2019-04-22T12:09:12.468Z,30.60
2019-04-22T12:11:41.688Z,30.60
2019-04-22T12:14:11.785Z,30.70
2019-04-22T12:17:01.480Z,31.00
2019-04-22T12:19:31.787Z,31.30
2019-04-22T12:22:00.869Z,31.60
2019-04-22T12:24:30.291Z,31.60
2019-04-22T12:27:00.232Z,31.30
2019-04-22T12:29:48.987Z,31.20
2019-04-22T12:32:18.133Z,31.40
2019-04-22T12:34:47.309Z,31.50
2019-04-22T12:37:26.049Z,31.80
2019-04-22T12:39:48.111Z,32.00
2019-04-22T12:42:19.593Z,32.00
2019-04-22T12:44:49.623Z,32.00
2019-04-22T12:47:20.057Z,32.00
2019-04-22T12:49:57.192Z,32.00
2019-04-22T12:52:27.632Z,32.30
2019-04-22T12:55:10.013Z,32.00
2019-04-22T12:57:46.448Z,31.70
2019-04-22T13:00:17.664Z,31.20
2019-04-22T13:02:47.325Z,31.50
2019-04-22T13:05:18.556Z,32.00
2019-04-22T13:07:47.633Z,32.30
2019-04-22T13:10:17.761Z,32.40
2019-04-22T13:12:47.107Z,32.50
2019-04-22T13:15:18.017Z,32.70
2019-04-22T13:17:59.475Z,33.00
2019-04-22T13:20:20.179Z,33.10
2019-04-22T13:22:50.498Z,33.10
2019-04-22T13:25:23.327Z,33.50
2019-04-22T13:27:51.244Z,33.40
2019-04-22T13:30:20.995Z,33.50
2019-04-22T13:32:50.049Z,33.50
2019-04-22T13:35:20.243Z,33.70
2019-04-22T13:37:51.007Z,34.00
2019-04-22T13:40:21.157Z,34.10
2019-04-22T13:42:51.165Z,34.30
2019-04-22T13:45:20.284Z,34.60
2019-04-22T13:48:26.281Z,34.50
2019-04-22T13:53:44.980Z,34.60
2019-04-22T13:56:01.724Z,34.40
2019-04-22T13:58:44.915Z,34.50
2019-04-22T14:01:06.933Z,34.80
2019-04-22T14:04:02.655Z,35.00
2019-04-22T14:06:31.907Z,35.20
2019-04-22T14:09:01.193Z,35.50
2019-04-22T14:11:37.642Z,35.20
2019-04-22T14:14:01.003Z,34.60
2019-04-22T14:16:31.140Z,34.30
2019-04-22T14:19:00.377Z,33.90
2019-04-22T14:21:30.564Z,33.50
2019-04-22T14:24:00.376Z,33.30
2019-04-22T14:27:03.171Z,33.00
2019-04-22T14:29:19.687Z,32.80
2019-04-22T14:32:02.102Z,32.70
2019-04-22T14:34:20.821Z,32.60
2019-04-22T14:36:51.124Z,32.50
2019-04-22T14:39:20.281Z,32.10
2019-04-22T14:44:42.423Z,32.00
2019-04-22T14:47:15.910Z,32.10
2019-04-22T14:49:43.513Z,32.30
2019-04-22T14:52:15.140Z,32.30
2019-04-22T14:54:37.561Z,32.40
2019-04-22T14:56:54.233Z,32.40
2019-04-22T14:59:23.281Z,32.40
2019-04-22T15:01:53.942Z,32.60
2019-04-22T15:04:23.493Z,32.80
2019-04-22T15:06:52.868Z,33.30
2019-04-22T15:09:21.924Z,33.50
2019-04-22T15:12:03.174Z,33.50
2019-04-22T15:14:23.262Z,33.30
2019-04-22T15:17:13.017Z,33.00
2019-04-22T15:20:01.483Z,32.90
2019-04-22T15:22:30.928Z,33.30
2019-04-22T15:25:00.735Z,33.80
2019-04-22T15:27:31.128Z,34.30
2019-04-22T15:30:01.329Z,34.40
2019-04-22T15:32:31.659Z,34.70
2019-04-22T15:35:19.874Z,34.90
2019-04-22T15:37:51.112Z,35.00
2019-04-22T15:40:20.657Z,35.10
2019-04-22T15:42:50.747Z,35.10
2019-04-22T15:45:20.549Z,35.20
2019-04-22T15:47:52.247Z,35.20
2019-04-22T15:50:22.488Z,35.40
2019-04-22T15:52:54.985Z,35.60
2019-04-22T15:55:22.894Z,35.70
2019-04-22T15:57:52.085Z,35.70
2019-04-22T16:00:35.546Z,35.80
2019-04-22T16:02:52.261Z,35.80
2019-04-22T16:05:22.511Z,36.00
2019-04-22T16:07:53.006Z,36.00
2019-04-22T16:10:42.097Z,35.90
2019-04-22T16:13:18.262Z,35.90
2019-04-22T16:15:42.731Z,35.80
2019-04-22T16:18:14.607Z,35.60
2019-04-22T16:20:43.906Z,35.20
2019-04-22T16:23:32.319Z,34.90
2019-04-22T16:26:26.341Z,34.70
2019-04-22T16:28:57.620Z,34.50
2019-04-22T16:31:27.106Z,34.00
2019-04-22T16:33:56.375Z,34.10
2019-04-22T16:36:26.806Z,34.20
2019-04-22T16:38:57.076Z,34.30
2019-04-22T16:41:26.478Z,34.30
2019-04-22T16:43:56.321Z,34.10
2019-04-22T16:46:25.622Z,34.00
2019-04-22T16:48:55.878Z,33.60
2019-04-22T16:51:25.106Z,33.10
2019-04-22T16:53:54.179Z,32.70
2019-04-22T16:56:24.656Z,32.70
2019-04-22T16:58:54.806Z,32.80
2019-04-22T17:02:01.277Z,32.60
2019-04-22T17:04:48.602Z,32.70
2019-04-22T17:07:20.393Z,32.60
2019-04-22T17:09:49.993Z,32.70
2019-04-22T17:12:19.590Z,32.50
2019-04-22T17:14:54.774Z,32.30
2019-04-22T17:17:20.205Z,32.10
2019-04-22T17:19:49.442Z,31.90
2019-04-22T17:22:19.654Z,32.00
2019-04-22T17:24:49.925Z,32.10
2019-04-22T17:27:20.189Z,32.10
2019-04-22T17:29:50.593Z,31.90
2019-04-22T17:32:22.716Z,31.70
2019-04-22T17:34:51.710Z,31.60
2019-04-22T17:37:26.602Z,31.40
2019-04-22T17:40:13.291Z,31.20
2019-04-22T17:42:42.352Z,31.10
2019-04-22T17:45:22.191Z,30.90
2019-04-22T17:48:35.687Z,30.60
2019-04-22T17:51:16.144Z,30.30
2019-04-22T17:53:46.926Z,30.20
2019-04-22T17:56:10.258Z,30.10
2019-04-22T17:58:45.095Z,29.90
2019-04-22T18:01:16.456Z,29.80
2019-04-22T18:03:32.887Z,29.80
2019-04-22T18:06:00.467Z,29.70
2019-04-22T18:08:45.263Z,29.60
2019-04-22T18:11:24.314Z,29.20
2019-04-22T18:13:51.553Z,28.80
2019-04-22T18:16:18.224Z,28.50
2019-04-22T18:18:52.896Z,27.90
2019-04-22T18:21:38.026Z,27.30
2019-04-22T18:24:01.374Z,26.80
2019-04-22T18:26:40.208Z,26.30
2019-04-22T18:29:11.571Z,26.00
2019-04-22T18:31:37.193Z,25.90
2019-04-22T18:34:06.874Z,25.60
2019-04-22T18:36:40.440Z,25.30
2019-04-22T18:41:45.001Z,24.70
2019-04-22T18:44:17.986Z,24.40
2019-04-22T18:46:50.398Z,24.20
2019-04-22T18:49:15.022Z,23.90
2019-04-22T18:51:51.402Z,23.70
2019-04-22T18:54:45.777Z,23.50
2019-04-22T18:57:15.680Z,23.30
2019-04-22T18:59:34.581Z,23.10
2019-04-22T19:02:07.772Z,22.90
2019-04-22T19:04:44.407Z,22.80
2019-04-22T19:07:51.189Z,22.60
2019-04-22T19:10:23.608Z,22.30
2019-04-22T19:13:02.033Z,22.20
2019-04-22T19:15:18.941Z,21.90
2019-04-22T19:17:55.092Z,21.70
2019-04-22T19:20:24.086Z,21.60
2019-04-22T19:22:52.330Z,21.50
2019-04-22T19:25:15.365Z,21.30
2019-04-22T19:27:48.315Z,21.20
2019-04-22T19:30:27.451Z,21.10
2019-04-22T19:32:51.170Z,21.00
2019-04-22T19:35:17.148Z,20.90
2019-04-22T19:37:45.114Z,20.80
2019-04-22T19:40:30.313Z,20.70
2019-04-22T19:43:15.417Z,20.70
2019-04-22T19:45:44.356Z,20.60
2019-04-22T19:48:27.209Z,20.50
2019-04-22T19:51:12.837Z,20.30
2019-04-22T19:53:43.894Z,20.10
2019-04-22T19:56:06.136Z,20.00
2019-04-22T19:58:37.360Z,19.80
2019-04-22T20:01:32.151Z,19.80
2019-04-22T20:06:53.417Z,19.70
2019-04-22T20:09:33.401Z,19.60
2019-04-22T20:11:57.545Z,19.50
2019-04-22T20:14:28.073Z,19.30
2019-04-22T20:16:53.378Z,19.20
2019-04-22T20:19:50.170Z,19.10
2019-04-22T20:22:17.555Z,19.10
2019-04-22T20:24:39.377Z,19.00
2019-04-22T20:27:18.729Z,19.00
2019-04-22T20:29:51.728Z,18.90
2019-04-22T20:32:23.467Z,18.80
2019-04-22T20:34:59.080Z,18.70
2019-04-22T20:37:29.481Z,18.70
2019-04-22T20:39:52.884Z,18.60
2019-04-22T20:42:38.724Z,18.60
2019-04-22T20:45:01.542Z,18.60
2019-04-22T20:47:21.692Z,18.50
2019-04-22T20:50:02.171Z,18.50
2019-04-22T20:52:36.818Z,18.40
2019-04-22T20:54:55.909Z,18.40
2019-04-22T20:57:32.045Z,18.30
2019-04-22T20:59:55.869Z,18.10
2019-04-22T21:02:23.803Z,18.10
2019-04-22T21:04:49.032Z,18.00
2019-04-22T21:07:26.601Z,18.00
2019-04-22T21:09:59.513Z,17.90
2019-04-22T21:12:22.395Z,17.90
2019-04-22T21:15:08.101Z,17.90
2019-04-22T21:17:34.750Z,17.90
2019-04-22T21:20:14.268Z,17.80
2019-04-22T21:22:46.306Z,17.80
2019-04-22T21:25:11.275Z,17.70
2019-04-22T21:28:05.039Z,17.70
2019-04-22T21:30:14.414Z,17.60
2019-04-22T21:32:47.402Z,17.60
2019-04-22T21:35:29.193Z,17.50
2019-04-22T21:37:57.088Z,17.50
2019-04-22T21:40:26.135Z,17.40
2019-04-22T21:42:53.113Z,17.40
2019-04-22T21:45:14.966Z,17.40
2019-04-22T21:47:57.112Z,17.40
2019-04-22T21:53:16.486Z,17.30
2019-04-22T21:55:50.826Z,17.30
2019-04-22T21:58:31.274Z,17.20
2019-04-22T22:01:33.596Z,17.10
2019-04-22T22:03:57.265Z,17.10
2019-04-22T22:06:19.033Z,17.10
2019-04-22T22:08:58.728Z,17.00
2019-04-22T22:11:24.212Z,17.00
2019-04-22T22:13:50.170Z,16.90
2019-04-22T22:16:19.209Z,16.90
2019-04-22T22:19:00.904Z,16.80
2019-04-22T22:23:59.333Z,16.70
2019-04-22T22:26:26.534Z,16.70
2019-04-22T22:29:05.048Z,16.60
2019-04-22T22:31:36.653Z,16.60
2019-04-22T22:34:25.007Z,16.60
2019-04-22T22:36:48.113Z,16.50
2019-04-22T22:39:17.395Z,16.50
2019-04-22T22:41:32.204Z,16.40
2019-04-22T22:44:10.286Z,16.40
2019-04-22T22:46:44.272Z,16.40
2019-04-22T22:49:28.775Z,16.30
2019-04-22T22:52:10.209Z,16.30
2019-04-22T22:54:33.079Z,16.20
2019-04-22T22:59:31.195Z,16.10
2019-04-22T23:01:56.869Z,16.10
2019-04-22T23:04:34.204Z,16.00
2019-04-22T23:07:06.917Z,16.00
2019-04-22T23:09:30.694Z,15.90
2019-04-22T23:14:35.002Z,15.90
2019-04-22T23:16:51.414Z,15.80
2019-04-22T23:19:13.683Z,15.80
2019-04-22T23:21:46.814Z,15.70
2019-04-22T23:24:47.007Z,15.70
2019-04-22T23:27:21.135Z,15.60
2019-04-22T23:30:10.977Z,15.60
2019-04-22T23:32:42.646Z,15.50
2019-04-22T23:35:33.764Z,15.50
2019-04-22T23:38:08.346Z,15.50
2019-04-22T23:40:38.490Z,15.50
2019-04-22T23:43:15.844Z,15.40
2019-04-22T23:45:46.665Z,15.40
2019-04-22T23:48:08.303Z,15.30
2019-04-22T23:50:45.967Z,15.30
2019-04-22T23:54:04.373Z,15.30
2019-04-22T23:56:06.126Z,15.30
2019-04-22T23:58:58.495Z,15.20
